ADDS TAF Board (Experimental) INFO Settings
IDs: Format: Expanded Condensed

KPHL - Philadelphia Intl, PA, US

Issued at 0916 UTC 04 May 2016
Updated at: 0955 UTC 04 May 2016
Time0854Z 04/10Z 04/11Z 04/12Z 04/13Z 04/14Z 04/15Z 04/16Z 04/17Z 04/18Z 04/19Z 04/20Z 04/21Z 04/22Z
Type OBS PRVL
  [TEMP]  
PRVL
  [TEMP]  
PRVL
  [TEMP]  
PRVL
  [TEMP]  
PRVL PRVL PRVL PRVL PRVL
  [TEMP]  
PRVL
  [TEMP]  
PRVL
  [TEMP]  
PRVL
  [TEMP]  
PRVL
VIS 10 >6
  [5]  
>6
  [5]  
>6
  [5]  
>6
  [5]  
5 5 5 5 5
  [2]  
5
  [2]  
5
  [2]  
5
  [2]  
5
CIG 8 8
  [8]  
8
  [8]  
8
  [8]  
8
  [8]  
8 8 8 8 8
  [5]  
8
  [5]  
8
  [5]  
8
  [5]  
7
Cover OVC OVC
  [OVC]  
OVC
  [OVC]  
OVC
  [OVC]  
OVC
  [OVC]  
OVC OVC OVC OVC OVC
  [OVC]  
OVC
  [OVC]  
OVC
  [OVC]  
OVC
  [OVC]  
OVC
FltCat IFR IFR
  [IFR]  
IFR
  [IFR]  
IFR
  [IFR]  
IFR
  [IFR]  
IFR IFR IFR IFR IFR
  [IFR]  
IFR
  [IFR]  
IFR
  [IFR]  
IFR
  [IFR]  
IFR
WX -RA -RA
  [BR]  
-RA
  [BR]  
-RA
  [BR]  
-RA
  [BR]  
-RA BR -RA BR -RA BR -RA BR -RA BR
  [RA BR]  
-RA BR
  [RA BR]  
-RA BR
  [RA BR]  
-RA BR
  [RA BR]  
-DZ BR
WDir 50 50
[50]
50
[50]
50
[50]
50
[50]
60 60 60 60 60
[60]
60
[60]
60
[60]
60
[60]
50
WSpd 4 7
  [7]  
7
  [7]  
7
  [7]  
7
  [7]  
8 8 8 8 8
  [8]  
8
  [8]  
8
  [8]  
8
  [8]  
10
WGst -- --
  [--]  
--
  [--]  
--
  [--]  
--
  [--]  
-- -- -- -- --
  [--]  
--
  [--]  
--
  [--]  
--
  [--]  
15
R08/26
XWnd 2 3 3 3 3 2 2 2 2 2 2 2 2 4
XGst -- 0 0 0 0 -- -- -- -- 0 0 0 0 6
HWnd 4 6 6 6 6 8 8 8 8 8 8 8 8 9
HGst -- 0 0 0 0 -- -- -- -- 0 0 0 0 14
R09/27
XWnd 2 3 3 3 3 2 2 2 2 2 2 2 2 4
XGst -- 0 0 0 0 -- -- -- -- 0 0 0 0 6
HWnd 4 6 6 6 6 8 8 8 8 8 8 8 8 9
HGst -- 0 0 0 0 -- -- -- -- 0 0 0 0 14
R17/35
XWnd 4 7 7 7 7 8 8 8 8 8 8 8 8 9
XGst -- 0 0 0 0 -- -- -- -- 0 0 0 0 14
HWnd -1 -2 -2 -2 -2 -1 -1 -1 -1 -1 -1 -1 -1 -3
HGst -- 0 0 0 0 -- -- -- -- 0 0 0 0 -5

NOTE: TEMPO conditions in [brackets]. Keep in mind TEMPO conditions might be better (lower impact) than prevailing conditions.

Raw TAF
KPHL 040916Z 0409/0512 05007KT P6SM -RA BKN008 OVC012
  TEMPO 0410/0414 5SM BR
  FM041400 06008KT 5SM -RA BR OVC008
  TEMPO 0418/0422 2SM RA BR OVC005
  FM042200 05010G15KT 5SM -DZ BR OVC007


Raw METAR
KPHL 040854Z 05004KT 10SM -RA BKN008 OVC012 11/08 A2979 RMK AO2 RAE27B47 SLP087 P0000 60002 T01060083 56004
KPHL 040851Z 06003KT 10SM -RA BKN008 OVC012 11/08 A2979 RMK AO2 RAE27B47 P0000
KPHL 040754Z 09006KT 10SM -RA SCT008 BKN011 OVC075 11/08 A2979 RMK AO2 RAB0659 SLP089 P0002 T01110083
KPHL 040750Z 09005KT 10SM -RA SCT008 BKN012 OVC075 11/08 A2979 RMK AO2 RAB0659 P0002
KPHL 040735Z 08007KT 8SM -RA SCT008 BKN012 OVC070 11/08 A2980 RMK AO2 RAB0659 P0001 T01110083
KPHL 040727Z 08008KT 10SM -RA SCT008 BKN012 OVC070 11/08 A2980 RMK AO2 RAB0659 SCT V BKN P0000 T01110083
KPHL 040654Z 07007KT 10SM BKN008 OVC012 11/08 A2979 RMK AO2 SLP087 T01110083

METAR Board
Radar Display
Forecast Discussion

TAF Board Legend

Potential Impact
Threat None Slight Moderate High
Visibility (sm) ≥5.1 5.1>X≥3 3>X≥1 <1
Ceiling (100 ft) ≥30.1 30.1>X≥10 10>X≥5 <5
Wind Speed (kt) <10 10≤X<20 20≤X<30 ≥30
Wind Gust (kt) <15 15≤X<25 25≤X<35 ≥35
Weather No Wx Reported VCTS,-TS,-FZRA,SN TS,FZRA +TS,+FZRA,+SN